createdAt,value
2018-04-12T00:01:30.861Z,11.0
2018-04-12T00:18:10.065Z,10.7
2018-04-12T00:34:48.867Z,10.4
2018-04-12T00:51:27.485Z,10.4
2018-04-12T01:08:05.950Z,10.1
2018-04-12T01:24:44.545Z,10.1
2018-04-12T01:41:22.601Z,9.8
2018-04-12T01:58:00.685Z,9.8
2018-04-12T02:14:38.752Z,9.4
2018-04-12T02:31:16.676Z,9.4
2018-04-12T02:47:54.625Z,9.4
2018-04-12T03:04:32.340Z,9.1
2018-04-12T03:21:09.991Z,9.1
2018-04-12T03:37:47.475Z,8.8
2018-04-12T03:54:25.013Z,8.8
2018-04-12T04:11:02.382Z,8.8
2018-04-12T04:27:39.770Z,8.8
2018-04-12T04:44:17.393Z,9.1
2018-04-12T05:00:55.058Z,9.1
2018-04-12T05:17:33.192Z,9.8
2018-04-12T05:34:11.416Z,10.1
2018-04-12T05:50:49.917Z,10.4
2018-04-12T06:07:28.876Z,10.4
2018-04-12T06:24:07.725Z,10.7
2018-04-12T06:40:46.562Z,10.7
2018-04-12T06:57:25.505Z,10.4
2018-04-12T07:14:04.488Z,10.4
2018-04-12T07:30:43.962Z,10.7
2018-04-12T07:47:26.093Z,11.0
2018-04-12T08:04:03.762Z,11.4
2018-04-12T08:20:44.295Z,11.4
2018-04-12T08:37:23.726Z,11.7
2018-04-12T08:54:04.402Z,11.7
2018-04-12T09:10:43.238Z,12.0
2018-04-12T09:27:24.320Z,12.6
2018-04-12T09:37:24.803Z,13.3
2018-04-12T09:40:44.858Z,13.3
2018-04-12T09:47:25.405Z,12.6
2018-04-12T10:04:06.409Z,13.3
2018-04-12T10:20:47.967Z,13.6
2018-04-12T10:37:29.435Z,14.6
2018-04-12T10:47:31.066Z,14.9
2018-04-12T11:04:14.239Z,15.2
2018-04-12T11:20:57.139Z,14.9
2018-04-12T11:27:52.788Z,15.5
2018-04-12T11:34:19.975Z,16.2
2018-04-12T11:51:02.962Z,16.2
2018-04-12T12:07:47.131Z,16.2
2018-04-12T12:24:30.107Z,15.8
2018-04-12T12:37:52.983Z,16.5
2018-04-12T12:54:36.422Z,16.2
2018-04-12T13:01:17.892Z,15.5
2018-04-12T13:18:00.767Z,15.8
2018-04-12T13:34:44.770Z,16.2
2018-04-12T13:51:38.380Z,16.5
2018-04-12T14:08:12.505Z,16.5
2018-04-12T14:24:56.777Z,16.8
2018-04-12T14:38:21.083Z,17.4
2018-04-12T14:55:05.277Z,17.8
2018-04-12T15:11:53.776Z,18.1
2018-04-12T15:28:36.386Z,18.4
2018-04-12T15:42:00.825Z,17.8
2018-04-12T15:58:44.956Z,17.1
2018-04-12T16:15:29.700Z,17.1
2018-04-12T16:32:14.748Z,16.8
2018-04-12T16:48:58.323Z,16.8
2018-04-12T17:05:42.388Z,16.2
2018-04-12T17:12:25.215Z,15.5
2018-04-12T17:29:07.103Z,15.2
2018-04-12T17:45:49.123Z,14.9
2018-04-12T18:02:31.704Z,14.2
2018-04-12T18:19:13.561Z,14.2
2018-04-12T18:35:56.052Z,13.9
2018-04-12T18:52:37.865Z,13.9
2018-04-12T19:09:20.145Z,14.2
2018-04-12T19:26:01.998Z,14.2
2018-04-12T19:42:44.460Z,14.2
2018-04-12T19:59:27.073Z,14.2
2018-04-12T20:16:08.771Z,13.9
2018-04-12T20:32:50.890Z,13.9
2018-04-12T20:49:32.069Z,13.9
2018-04-12T21:06:14.121Z,13.6
2018-04-12T21:22:56.384Z,13.6
2018-04-12T21:39:38.581Z,13.9
2018-04-12T21:56:19.711Z,13.6
2018-04-12T22:13:01.815Z,13.6
2018-04-12T22:29:44.335Z,13.6
2018-04-12T22:46:25.433Z,13.6
2018-04-12T23:03:07.645Z,13.6
2018-04-12T23:19:49.128Z,13.3
2018-04-12T23:36:30.549Z,13.3
2018-04-12T23:53:11.765Z,13.3
